Terminal Aerodrome Forecast
Issued by NWS Wichita, KS

Home | Current Version | Previous Version | Graphics & Text | Print | Product List | Glossary On
Versions: 1 2 3 4 5 6 7 8 9 10 11 12 13 14 15
000
FTUS43 KICT 272329
TAFICT
TAF
KICT 272329Z 2800/2824 VRB05KT P6SM FEW080
     FM280900 21008KT P6SM SCT080
     FM281500 24012G20KT P6SM SCT060
     FM282200 23011G21KT P6SM VCTS BKN060CB=

USA.gov is the U.S. government's official web portal to all federal, state and local government web resources and services.